createdAt,value
2022-10-29T00:02:24.809Z,25.02
2022-10-29T00:05:30.493Z,23.28
2022-10-29T00:08:40.365Z,22.76
2022-10-29T00:11:46.030Z,22.67
2022-10-29T00:14:54.407Z,21.61
2022-10-29T00:18:00.124Z,21.21
2022-10-29T00:21:13.790Z,21.49
2022-10-29T00:24:19.390Z,21.90
2022-10-29T00:27:25.149Z,21.05
2022-10-29T00:30:33.443Z,20.29
2022-10-29T00:33:39.220Z,20.64
2022-10-29T00:36:44.811Z,19.59
2022-10-29T00:39:50.376Z,20.27
2022-10-29T00:42:56.015Z,19.54
2022-10-29T00:46:10.419Z,18.98
2022-10-29T00:49:17.283Z,19.45
2022-10-29T00:52:28.863Z,18.46
2022-10-29T00:55:35.688Z,17.94
2022-10-29T00:58:41.738Z,17.80
2022-10-29T01:01:52.849Z,18.68
2022-10-29T01:04:59.654Z,18.34
2022-10-29T01:08:06.249Z,18.03
2022-10-29T01:11:29.797Z,17.93
2022-10-29T01:14:52.651Z,18.42
2022-10-29T01:18:20.801Z,17.97
2022-10-29T01:21:45.364Z,18.33
2022-10-29T01:25:33.377Z,18.55
2022-10-29T01:29:13.508Z,17.41
2022-10-29T01:32:34.411Z,17.56
2022-10-29T01:35:59.162Z,16.53
2022-10-29T01:39:19.883Z,15.88
2022-10-29T01:42:38.644Z,16.23
2022-10-29T01:45:53.763Z,14.59
2022-10-29T01:49:15.126Z,15.50
2022-10-29T01:52:27.583Z,14.70
2022-10-29T01:55:38.267Z,15.04
2022-10-29T01:58:53.282Z,14.68
2022-10-29T02:02:15.682Z,14.88
2022-10-29T02:05:35.881Z,15.39
2022-10-29T02:08:59.021Z,15.47
2022-10-29T02:12:18.901Z,14.89
2022-10-29T02:15:36.430Z,14.38
2022-10-29T02:18:48.951Z,14.09
2022-10-29T02:21:57.113Z,13.47
2022-10-29T02:25:03.218Z,14.07
2022-10-29T02:28:09.615Z,13.44
2022-10-29T02:31:15.343Z,13.25
2022-10-29T02:34:21.025Z,13.48
2022-10-29T02:37:29.733Z,12.73
2022-10-29T02:40:35.521Z,12.10
2022-10-29T02:43:41.154Z,12.99
2022-10-29T02:46:46.679Z,12.45
2022-10-29T02:49:52.482Z,12.40
2022-10-29T02:53:00.700Z,12.36
2022-10-29T02:56:07.785Z,12.59
2022-10-29T02:59:13.465Z,12.96
2022-10-29T03:02:19.303Z,12.54
2022-10-29T03:05:24.969Z,12.07
2022-10-29T03:08:33.226Z,11.88
2022-10-29T03:11:38.953Z,12.56
2022-10-29T03:14:46.282Z,12.63
2022-10-29T03:17:51.925Z,12.93
2022-10-29T03:20:57.555Z,12.97
2022-10-29T03:24:05.964Z,13.03
2022-10-29T03:27:11.663Z,13.13
2022-10-29T03:30:20.440Z,13.04
2022-10-29T03:33:26.867Z,13.21
2022-10-29T03:36:33.042Z,13.34
2022-10-29T03:39:41.313Z,13.04
2022-10-29T03:42:50.639Z,13.76
2022-10-29T03:45:57.547Z,15.92
2022-10-29T03:49:03.263Z,18.00
2022-10-29T03:52:08.886Z,20.68
2022-10-29T03:55:17.262Z,19.77
2022-10-29T03:58:24.207Z,19.28
2022-10-29T04:01:29.951Z,19.25
2022-10-29T04:04:35.674Z,18.63
2022-10-29T04:07:41.237Z,18.21
2022-10-29T04:10:54.407Z,19.12
2022-10-29T04:14:00.104Z,18.56
2022-10-29T04:17:05.753Z,19.40
2022-10-29T04:20:27.868Z,19.95
2022-10-29T04:30:33.651Z,23.78
2022-10-29T04:33:39.281Z,25.47
2022-10-29T04:36:44.831Z,31.16
2022-10-29T04:39:50.400Z,30.17
2022-10-29T04:42:58.879Z,31.89
2022-10-29T04:46:06.339Z,34.32
2022-10-29T04:49:12.131Z,30.48
2022-10-29T04:52:17.957Z,21.82
2022-10-29T04:55:23.629Z,17.90
2022-10-29T04:58:32.435Z,17.07
2022-10-29T05:01:38.070Z,17.08
2022-10-29T05:04:43.701Z,17.26
2022-10-29T05:07:50.081Z,19.35
2022-10-29T05:10:55.706Z,21.37
2022-10-29T05:14:03.965Z,22.03
2022-10-29T05:17:09.682Z,23.71
2022-10-29T05:20:15.418Z,26.89
2022-10-29T05:23:21.067Z,24.30
2022-10-29T05:26:26.838Z,21.41
2022-10-29T05:29:35.116Z,19.45
2022-10-29T05:32:40.864Z,18.94
2022-10-29T05:35:47.017Z,19.36
2022-10-29T05:38:52.736Z,20.68
2022-10-29T05:41:58.610Z,20.18
2022-10-29T05:45:07.893Z,18.09
2022-10-29T05:48:15.760Z,16.15
2022-10-29T05:51:21.533Z,16.71
2022-10-29T05:54:27.717Z,16.45
2022-10-29T05:57:33.503Z,15.94
2022-10-29T06:00:46.373Z,15.40
2022-10-29T06:06:59.110Z,15.74
2022-10-29T06:10:05.015Z,16.19
2022-10-29T06:13:15.120Z,17.86
2022-10-29T06:16:23.395Z,20.65
2022-10-29T06:19:29.074Z,29.44
2022-10-29T06:22:34.874Z,30.10
2022-10-29T06:25:40.513Z,29.41
2022-10-29T06:28:46.173Z,27.15
2022-10-29T06:31:54.414Z,26.02
2022-10-29T06:35:00.365Z,25.41
2022-10-29T06:38:09.373Z,22.43
2022-10-29T06:41:18.369Z,21.10
2022-10-29T06:44:24.939Z,19.65
2022-10-29T06:47:33.171Z,19.78
2022-10-29T06:50:45.426Z,20.03
2022-10-29T06:53:51.247Z,20.15
2022-10-29T06:56:57.011Z,22.01
2022-10-29T07:00:07.334Z,22.91
2022-10-29T07:03:23.395Z,22.56
2022-10-29T07:06:38.152Z,22.71
2022-10-29T07:09:44.571Z,21.98
2022-10-29T07:12:50.856Z,22.07
2022-10-29T07:16:00.291Z,21.81
2022-10-29T07:19:11.946Z,20.55
2022-10-29T07:22:25.034Z,19.93
2022-10-29T07:25:33.715Z,19.79
2022-10-29T07:28:39.814Z,20.08
2022-10-29T07:31:50.580Z,20.93
2022-10-29T07:34:59.397Z,21.43
2022-10-29T07:38:10.847Z,22.78
2022-10-29T07:41:17.238Z,22.01
2022-10-29T07:44:28.270Z,21.88
2022-10-29T07:47:38.892Z,21.35
2022-10-29T07:50:47.142Z,22.01
2022-10-29T07:53:52.783Z,21.40
2022-10-29T07:56:58.411Z,21.82
2022-10-29T08:00:03.955Z,21.82
2022-10-29T08:03:17.858Z,22.29
2022-10-29T08:06:27.571Z,23.01
2022-10-29T08:09:33.302Z,22.19
2022-10-29T08:12:38.906Z,21.84
2022-10-29T08:15:44.509Z,21.49
2022-10-29T08:18:50.257Z,21.43
2022-10-29T08:21:58.730Z,21.36
2022-10-29T08:25:04.372Z,20.81
2022-10-29T08:28:12.524Z,21.27
2022-10-29T08:31:28.071Z,20.94
2022-10-29T08:34:35.910Z,20.77
2022-10-29T08:37:48.738Z,21.00
2022-10-29T08:41:21.422Z,19.24
2022-10-29T08:45:18.754Z,18.82
2022-10-29T08:48:44.592Z,20.98
2022-10-29T08:52:10.441Z,24.70
2022-10-29T08:55:41.529Z,25.57
2022-10-29T08:59:04.117Z,23.26
2022-10-29T09:02:21.037Z,20.66
2022-10-29T09:05:35.950Z,20.81
2022-10-29T09:09:04.150Z,23.84
2022-10-29T09:12:52.312Z,20.09
2022-10-29T09:16:30.169Z,18.36
2022-10-29T09:20:02.018Z,16.73
2022-10-29T09:23:25.018Z,17.97
2022-10-29T09:26:43.913Z,17.88
2022-10-29T09:30:17.874Z,17.88
2022-10-29T09:33:29.227Z,19.12
2022-10-29T09:36:36.422Z,19.90
2022-10-29T09:39:47.823Z,16.81
2022-10-29T09:42:59.699Z,14.91
2022-10-29T09:46:23.770Z,13.72
2022-10-29T09:49:57.778Z,15.53
2022-10-29T09:53:03.689Z,17.08
2022-10-29T09:56:12.371Z,16.15
2022-10-29T09:59:35.187Z,15.44
2022-10-29T10:02:55.774Z,15.87
2022-10-29T10:06:09.036Z,18.54
2022-10-29T10:09:16.253Z,17.44
2022-10-29T10:12:23.934Z,15.47
2022-10-29T10:15:35.569Z,13.88
2022-10-29T10:18:46.979Z,14.36
2022-10-29T10:22:10.245Z,13.89
2022-10-29T10:25:38.094Z,14.83
2022-10-29T10:28:44.620Z,15.26
2022-10-29T10:31:53.018Z,18.08
2022-10-29T10:35:01.502Z,18.80
2022-10-29T10:38:12.444Z,15.91
2022-10-29T10:41:27.063Z,15.20
2022-10-29T10:44:34.278Z,17.49
2022-10-29T10:47:46.839Z,18.30
2022-10-29T10:50:56.791Z,15.70
2022-10-29T10:54:10.157Z,17.91
2022-10-29T10:57:28.442Z,19.38
2022-10-29T11:00:44.932Z,18.90
2022-10-29T11:03:58.614Z,16.58
2022-10-29T11:07:16.703Z,13.98
2022-10-29T11:10:33.996Z,14.03
2022-10-29T11:13:45.273Z,13.26
2022-10-29T11:16:58.384Z,12.46
2022-10-29T11:20:18.942Z,12.08
2022-10-29T11:23:42.096Z,11.31
2022-10-29T11:26:57.172Z,10.98
2022-10-29T11:30:09.754Z,10.70
2022-10-29T11:33:30.680Z,10.34
2022-10-29T11:36:47.667Z,11.27
2022-10-29T11:40:05.940Z,10.69
2022-10-29T11:43:16.080Z,10.62
2022-10-29T11:46:40.805Z,11.34
2022-10-29T11:50:12.816Z,11.81
2022-10-29T11:53:43.146Z,12.24
2022-10-29T11:57:03.748Z,11.34
2022-10-29T12:00:19.044Z,10.60
2022-10-29T12:04:00.720Z,10.63
2022-10-29T12:07:27.568Z,11.18
2022-10-29T12:10:51.434Z,11.38
2022-10-29T12:14:23.256Z,12.40
2022-10-29T12:17:45.768Z,13.25
2022-10-29T12:21:08.975Z,14.26
2022-10-29T12:24:41.481Z,14.95
2022-10-29T12:28:03.895Z,15.52
2022-10-29T12:31:31.136Z,14.58
2022-10-29T12:34:49.690Z,15.15
2022-10-29T12:38:26.433Z,14.85
2022-10-29T12:41:43.366Z,20.00
2022-10-29T12:45:17.817Z,19.04
2022-10-29T12:48:43.843Z,20.83
2022-10-29T12:51:59.189Z,20.77
2022-10-29T12:55:10.598Z,18.18
2022-10-29T12:58:48.937Z,17.23
2022-10-29T13:02:11.143Z,17.07
2022-10-29T13:05:39.038Z,18.21
2022-10-29T13:08:57.954Z,17.43
2022-10-29T13:12:09.902Z,16.77
2022-10-29T13:15:17.415Z,19.30
2022-10-29T13:18:31.717Z,17.37
2022-10-29T13:22:03.225Z,15.15
2022-10-29T13:25:46.127Z,15.49
2022-10-29T13:28:55.199Z,16.13
2022-10-29T13:32:05.517Z,15.72
2022-10-29T13:35:43.657Z,14.48
2022-10-29T13:39:07.689Z,17.26
2022-10-29T13:42:17.633Z,17.47
2022-10-29T13:45:24.368Z,17.81
2022-10-29T13:48:37.597Z,16.69
2022-10-29T13:51:58.540Z,17.66
2022-10-29T13:55:12.522Z,18.81
2022-10-29T13:58:30.378Z,20.35
2022-10-29T14:01:37.486Z,19.35
2022-10-29T14:04:52.235Z,20.65
2022-10-29T14:08:07.028Z,19.46
2022-10-29T14:11:28.226Z,21.75
2022-10-29T14:14:44.725Z,20.16
2022-10-29T14:17:50.388Z,19.21
2022-10-29T14:21:01.533Z,18.99
2022-10-29T14:24:11.566Z,20.64
2022-10-29T14:27:19.810Z,21.90
2022-10-29T14:30:29.530Z,24.14
2022-10-29T14:33:39.109Z,24.61
2022-10-29T14:36:50.864Z,23.75
2022-10-29T14:40:02.639Z,26.06
2022-10-29T14:43:27.809Z,28.45
2022-10-29T14:46:38.839Z,29.71
2022-10-29T14:49:52.870Z,27.34
2022-10-29T14:53:10.645Z,27.21
2022-10-29T14:56:26.339Z,28.51
2022-10-29T14:59:38.614Z,30.15
2022-10-29T15:02:56.188Z,28.96
2022-10-29T15:06:19.459Z,29.72
2022-10-29T15:09:29.845Z,30.84
2022-10-29T15:12:40.363Z,33.19
2022-10-29T15:15:58.920Z,32.67
2022-10-29T15:19:05.875Z,27.82
2022-10-29T15:22:12.688Z,25.75
2022-10-29T15:25:30.679Z,30.54
2022-10-29T15:28:44.775Z,34.75
2022-10-29T15:32:00.187Z,31.98
2022-10-29T15:35:13.977Z,32.67
2022-10-29T15:39:26.930Z,31.49
2022-10-29T15:42:40.486Z,32.02
2022-10-29T15:46:00.530Z,34.38
2022-10-29T15:49:22.496Z,29.56
2022-10-29T15:52:36.626Z,28.41
2022-10-29T15:55:42.437Z,28.97
2022-10-29T15:58:48.120Z,30.85
2022-10-29T16:01:53.876Z,36.84
2022-10-29T16:05:02.297Z,36.80
2022-10-29T16:08:08.835Z,34.64
2022-10-29T16:11:20.325Z,34.62
2022-10-29T16:14:29.706Z,34.57
2022-10-29T16:17:35.261Z,31.54
2022-10-29T16:20:43.594Z,32.27
2022-10-29T16:23:55.981Z,32.59
2022-10-29T16:27:07.672Z,33.16
2022-10-29T16:30:17.687Z,32.55
2022-10-29T16:33:23.767Z,31.46
2022-10-29T16:36:32.211Z,33.52
2022-10-29T16:39:37.789Z,36.19
2022-10-29T16:42:43.678Z,38.29
2022-10-29T16:45:49.407Z,40.78
2022-10-29T16:48:55.130Z,41.10
2022-10-29T16:52:03.232Z,38.99
2022-10-29T16:55:10.481Z,36.53
2022-10-29T16:58:19.130Z,35.87
2022-10-29T17:01:24.822Z,36.25
2022-10-29T17:04:33.573Z,37.53
2022-10-29T17:07:42.295Z,36.70
2022-10-29T17:10:48.045Z,37.29
2022-10-29T17:13:53.663Z,35.65
2022-10-29T17:17:00.855Z,33.62
2022-10-29T17:20:06.884Z,31.74
2022-10-29T17:23:15.357Z,30.24
2022-10-29T17:26:21.155Z,28.84
2022-10-29T17:29:26.923Z,28.47
2022-10-29T17:32:32.843Z,28.99
2022-10-29T17:35:38.559Z,29.92
2022-10-29T17:38:49.328Z,30.94
2022-10-29T17:42:02.178Z,38.63
2022-10-29T17:45:23.532Z,41.54
2022-10-29T17:48:29.262Z,40.89
2022-10-29T17:51:36.291Z,40.00
2022-10-29T17:54:44.679Z,42.96
2022-10-29T17:57:50.330Z,48.58
2022-10-29T18:01:08.716Z,46.20
2022-10-29T18:04:15.544Z,40.61
2022-10-29T18:07:21.128Z,38.90
2022-10-29T18:10:30.818Z,38.64
2022-10-29T18:13:43.089Z,40.22
2022-10-29T18:16:49.459Z,42.15
2022-10-29T18:19:55.683Z,44.29
2022-10-29T18:23:02.220Z,40.19
2022-10-29T18:26:26.413Z,38.95
2022-10-29T18:29:35.053Z,36.30
2022-10-29T18:32:40.772Z,37.33
2022-10-29T18:35:47.028Z,41.13
2022-10-29T18:38:54.970Z,42.09
2022-10-29T18:42:03.793Z,44.28
2022-10-29T18:45:11.837Z,44.32
2022-10-29T18:48:17.845Z,40.78
2022-10-29T18:51:26.747Z,39.59
2022-10-29T18:54:35.728Z,37.94
2022-10-29T18:57:56.696Z,35.75
2022-10-29T19:01:12.909Z,33.98
2022-10-29T19:04:19.637Z,32.46
2022-10-29T19:07:26.146Z,32.60
2022-10-29T19:10:34.735Z,32.16
2022-10-29T19:13:44.719Z,31.84
2022-10-29T19:16:50.554Z,32.11
2022-10-29T19:19:56.707Z,34.34
2022-10-29T19:23:03.058Z,33.69
2022-10-29T19:26:20.554Z,33.21
2022-10-29T19:29:29.554Z,32.60
2022-10-29T19:32:41.909Z,32.03
2022-10-29T19:35:48.300Z,29.67
2022-10-29T19:38:54.690Z,28.55
2022-10-29T19:42:00.392Z,28.71
2022-10-29T19:45:26.186Z,27.77
2022-10-29T19:48:32.600Z,28.26
2022-10-29T19:51:57.412Z,27.40
2022-10-29T19:55:03.135Z,26.84
2022-10-29T19:58:09.619Z,26.96
2022-10-29T20:01:21.756Z,26.66
2022-10-29T20:04:28.623Z,27.92
2022-10-29T20:07:34.532Z,28.63
2022-10-29T20:10:41.009Z,28.14
2022-10-29T20:13:47.231Z,26.92
2022-10-29T20:16:58.341Z,27.52
2022-10-29T20:20:04.580Z,25.51
2022-10-29T20:23:10.606Z,26.01
2022-10-29T20:26:16.764Z,25.45
2022-10-29T20:29:22.805Z,26.30
2022-10-29T20:32:31.138Z,25.62
2022-10-29T20:35:37.160Z,26.04
2022-10-29T20:38:43.247Z,25.00
2022-10-29T20:41:49.582Z,25.83
2022-10-29T20:44:55.678Z,25.41
2022-10-29T20:48:05.353Z,25.28
2022-10-29T20:51:12.064Z,24.45
2022-10-29T20:54:18.267Z,24.68
2022-10-29T20:57:24.431Z,24.40
2022-10-29T21:00:30.051Z,24.49
2022-10-29T21:03:38.574Z,24.19
2022-10-29T21:06:48.926Z,25.75
2022-10-29T21:09:54.685Z,25.22
2022-10-29T21:13:00.580Z,25.59
2022-10-29T21:16:33.786Z,25.81
2022-10-29T21:20:02.416Z,26.39
2022-10-29T21:23:08.031Z,25.41
2022-10-29T21:26:16.625Z,26.75
2022-10-29T21:29:22.177Z,26.20
2022-10-29T21:32:27.816Z,27.51
2022-10-29T21:35:42.634Z,28.28
2022-10-29T21:38:54.812Z,29.04
2022-10-29T21:42:00.445Z,28.84
2022-10-29T21:45:14.843Z,30.30
2022-10-29T21:48:24.596Z,32.94
2022-10-29T21:51:32.832Z,31.98
2022-10-29T21:54:44.643Z,33.23
2022-10-29T21:57:50.321Z,33.70
2022-10-29T22:01:04.835Z,33.59
2022-10-29T22:04:10.749Z,34.87
2022-10-29T22:07:19.032Z,33.74
2022-10-29T22:10:24.937Z,34.22
2022-10-29T22:13:32.014Z,33.76
2022-10-29T22:16:38.684Z,34.67
2022-10-29T22:19:45.723Z,34.75
2022-10-29T22:22:54.131Z,34.74
2022-10-29T22:25:59.865Z,34.05
2022-10-29T22:29:05.636Z,34.90
2022-10-29T22:32:11.485Z,34.89
2022-10-29T22:35:20.399Z,34.82
2022-10-29T22:38:28.625Z,34.22
2022-10-29T22:41:34.548Z,34.66
2022-10-29T22:44:40.152Z,34.33
2022-10-29T22:47:45.691Z,32.65
2022-10-29T22:50:51.367Z,32.46
2022-10-29T22:54:01.102Z,33.22
2022-10-29T22:57:06.857Z,33.19
2022-10-29T23:00:17.612Z,33.12
2022-10-29T23:03:23.153Z,33.62
2022-10-29T23:06:30.565Z,34.43
2022-10-29T23:09:38.782Z,33.18
2022-10-29T23:12:44.367Z,34.35
2022-10-29T23:15:50.508Z,35.24
2022-10-29T23:18:58.771Z,35.36
2022-10-29T23:22:04.444Z,34.56
2022-10-29T23:25:13.218Z,33.90
2022-10-29T23:28:18.869Z,34.89
2022-10-29T23:31:27.630Z,35.97
2022-10-29T23:34:33.240Z,37.49
2022-10-29T23:37:38.903Z,36.18
2022-10-29T23:40:50.162Z,34.98
2022-10-29T23:43:56.243Z,33.85
2022-10-29T23:47:01.884Z,34.46
2022-10-29T23:50:07.979Z,34.17
2022-10-29T23:53:13.668Z,33.63
2022-10-29T23:56:21.942Z,34.39
2022-10-29T23:59:27.469Z,35.57
